Weather observations for the past three days for
Charleston Executive Airport
Metric (Imperial)
Date Time (edt) Wind (kph) Vis. (km) Weather Sky Cond. Temperature (ºC) Relative Humidity Wind Chill (°C) Heat Index (°C) Pressure Precipitation (cm)
Air Dwpt 6 hour altimeter (cm) sea level (mb) 1 hr 3 hr 6 hr
Max. Min.
07 14:55 W 26 G 46 16.09 Partly Cloudy FEW041 FEW070 SCT100 27 18 58% 28 75.77 0.0
07 14:35 SW 17 G 39 14.48 Fair CLR 27 18 58% 28 75.74 0.0
07 14:15 SW 17 8.05 Fair with Haze CLR 27 19 62% 28 75.79 0.0
07 13:50 SW 20 6.44 Fair with Haze CLR 26 18 61% 27 75.79 0.0
07 13:15 SW 22 G 39 6.44 Fair with Haze CLR 25 18 65% 26 75.79 0.0
07 12:55 SW 22 G 33 8.05 Fair with Haze CLR 26 18 61% 27 75.82 0.0
07 12:35 SW 26 G 35 11.27 Fair CLR 26 18 61% 27 75.87 0.0
07 11:55 SW 20 G 33 16.09 Fair CLR 27 17 54% 28 75.92 0.0
07 11:35 SW 17 G 26 16.09 Fair CLR 26 18 61% 27 75.95 0.0
07 11:15 SW 20 16.09 Fair CLR 25 18 65% 26 75.87 0.0
07 10:55 SW 19 16.09 Fair CLR 24 18 69% 25 75.87 0.0
07 10:35 SW 26 G 37 16.09 Fair CLR 23 17 69% 75.87 0.0
07 10:15 SW 17 G 28 16.09 Light Drizzle CLR 23 18 74% 75.92 0.0
07 09:55 SW 24 G 37 16.09 Fair CLR 22 18 78% 75.95 0.0
07 09:35 S 15 16.09 Fair CLR 22 18 78% 75.87 0.0
07 09:15 S 15 16.09 Fair CLR 22 18 78% 75.84 0.0
07 08:55 S 13 16.09 Fair CLR 21 19 88% 75.84 0.0
07 08:35 SW 7 16.09 Fair CLR 22 19 83% 75.9 0.0
07 08:15 SW 7 G 20 9.66 Light Drizzle Fog/Mist FEW060 FEW075 22 19 83% 75.92 0.0
07 07:55 SW 11 14.48 Fair CLR 22 20 88% 75.97 0.0
07 07:35 SW 7 14.48 Partly Cloudy SCT120 22 20 88% 76 0.0
07 06:55 SW 11 16.09 A Few Clouds FEW100 23 20 83% 76.05 0.0
07 06:35 W 7 16.09 Partly Cloudy FEW065 FEW075 SCT090 23 20 83% 76.05 0.0
07 06:15 SW 11 14.48 Light Drizzle FEW045 SCT060 BKN075 23 20 83% 76.05 0.0
07 05:55 SW 13 16.09 Mostly Cloudy FEW025 SCT055 BKN080 23 20 83% 76.07 0.0
07 05:30 SW 19 16.09 Overcast SCT017 BKN025 OVC120 23 20 83% 76.02 0.0
07 05:15 SW 19 G 30 16.09 Overcast FEW025 BKN033 OVC040 23 20 83% 76 0.0
07 04:55 SW 20 G 31 16.09 Mostly Cloudy SCT038 BKN060 BKN075 23 20 83% 76 0.0
07 04:35 SW 15 G 30 16.09 Mostly Cloudy SCT040 SCT060 BKN075 23 20 83% 75.97 0.0
07 04:15 SW 17 16.09 Partly Cloudy SCT041 SCT110 23 20 83% 75.95 0.0
07 03:55 SW 17 G 31 16.09 Partly Cloudy SCT041 SCT120 23 21 89% 75.95 0.0
07 03:35 SW 20 G 33 16.09 Fair CLR 23 21 89% 75.92 0.0
07 03:15 S 26 16.09 A Few Clouds FEW050 23 21 89% 75.9 0.0
07 02:55 SW 19 16.09 Partly Cloudy SCT050 23 21 89% 75.97 0.0
07 02:35 SW 15 16.09 Fair CLR 23 21 89% 75.97 0.0
07 02:15 SW 15 16.09 A Few Clouds FEW049 23 21 89% 76.02 0.0
07 01:55 SW 17 G 26 16.09 Fair CLR 23 21 89% 76.05 0.0
07 01:35 SW 20 16.09 Fair CLR 23 21 89% 76.1 0.0
07 01:15 SW 19 G 31 16.09 Fair CLR 23 21 89% 76.07 0.0
07 00:55 SW 19 16.09 Fair CLR 23 21 89% 76.1 0.0
07 00:35 SW 17 G 33 16.09 Fair CLR 23 21 89% 76.07 0.0
07 00:15 S 20 16.09 Fair CLR 23 21 89% 76.1 0.0
06 23:55 S 24 G 33 16.09 Fair CLR 23 21 89% 76.1 0.0
06 23:35 S 22 16.09 Fair CLR 23 21 89% 76.07 0.0
06 23:15 S 26 G 35 16.09 Fair CLR 23 21 89% 76.07 0.0
06 22:55 S 22 16.09 Fair CLR 23 21 89% 76.05 0.0
06 22:35 S 28 G 37 16.09 Fair CLR 23 21 89% 76.05 0.0
06 22:15 S 22 G 33 16.09 Fair CLR 23 21 89% 76.05 0.0
06 21:55 S 19 16.09 Fair CLR 23 21 89% 76.07 0.0
06 21:35 S 20 16.09 Fair CLR 23 21 89% 76.1 0.0
06 21:15 S 19 16.09 Fair CLR 23 21 89% 76.1 0.0
06 20:55 S 17 16.09 Fair CLR 23 20 83% 76.12 0.0
06 20:35 S 20 16.09 Fair CLR 23 20 83% 76.1 0.0
06 20:15 S 17 16.09 Fair CLR 23 20 83% 76.1 0.0
06 19:35 S 17 G 26 16.09 Fair CLR 23 20 83% 76.1 0.0
06 19:15 S 17 G 28 16.09 Fair CLR 24 20 78% 24 76.1 0.0
06 18:55 SW 19 16.09 Fair CLR 24 20 78% 24 76.1 0.0
06 18:35 S 26 16.09 Fair CLR 24 19 74% 25 76.07 0.0
06 18:15 SW 22 G 33 16.09 Fair CLR 25 19 69% 26 76.1 0.0
06 17:55 S 24 G 37 16.09 Fair CLR 25 19 69% 26 76.07 0.0
06 17:35 S 26 G 35 16.09 Fair CLR 26 19 65% 27 76.1 0.0
06 17:15 S 31 16.09 Fair CLR 26 19 65% 27 76.1 0.0
06 16:55 S 31 16.09 Fair CLR 26 19 65% 27 76.1 0.0
06 16:35 S 28 G 39 16.09 Fair CLR 26 18 61% 27 76.12 0.0
06 16:15 S 26 G 37 16.09 Fair CLR 27 19 62% 28 76.15 0.0
06 15:55 SW 22 G 33 16.09 Fair CLR 27 19 62% 28 76.15 0.0
06 15:35 S 20 G 33 16.09 Fair CLR 27 19 62% 28 76.17 0.0
06 15:15 S 26 16.09 Fair CLR 27 19 62% 28 76.2 0.0
06 14:55 SW 19 G 28 16.09 Fair CLR 27 19 62% 28 76.23 0.0
06 14:35 S 20 16.09 Fair CLR 26 19 65% 27 76.25 0.0
06 14:15 SW 19 G 30 16.09 Fair CLR 27 19 62% 28 76.25 0.0
06 13:55 SW 19 16.09 Fair CLR 27 19 62% 28 76.25 0.0
06 13:35 S 20 16.09 Fair CLR 26 19 65% 27 76.3 0.0
06 13:15 SW 20 16.09 Fair CLR 26 19 65% 27 76.3 0.0
06 12:55 S 20 G 30 16.09 Fair CLR 26 19 65% 27 76.3 0.0
06 12:35 S 19 G 31 16.09 Fair CLR 26 19 65% 27 76.3 0.0
06 12:15 S 22 16.09 Fair CLR 26 19 65% 27 76.3 0.0
06 11:55 S 20 16.09 Fair CLR 25 19 69% 26 76.33 0.0
06 11:35 SW 20 16.09 Fair CLR 26 18 61% 27 76.33 0.0
06 11:15 SW 20 16.09 Fair CLR 26 18 61% 27 76.33 0.0
06 10:55 SW 22 G 33 16.09 Fair CLR 26 17 58% 27 76.33 0.0
06 10:35 SW 19 G 31 16.09 Fair CLR 26 17 58% 27 76.3 0.0
06 10:15 SW 22 16.09 Fair CLR 25 17 61% 26 76.3 0.0
06 09:55 SW 19 16.09 Fair CLR 25 17 61% 26 76.3 0.0
06 09:35 SW 20 G 33 16.09 Fair CLR 25 17 61% 26 76.28 0.0
06 09:15 SW 17 G 26 16.09 Fair CLR 24 17 65% 25 76.28 0.0
06 08:55 SW 15 16.09 Fair CLR 24 18 69% 25 76.25 0.0
06 08:35 S 13 G 24 16.09 Fair CLR 23 18 74% 76.25 0.0
06 08:15 S 13 16.09 Fair CLR 23 18 74% 76.28 0.0
06 07:55 S 9 16.09 Fair CLR 22 18 78% 76.25 0.0
06 07:35 S 9 16.09 Fair CLR 21 18 83% 76.25 0.0
06 07:15 S 7 16.09 Fair CLR 20 18 88% 76.23 0.0
06 06:55 SW 6 16.09 Fair CLR 19 17 88% 76.23 0.0
06 06:35 S 7 16.09 Fair CLR 18 17 94% 76.2 0.0
06 06:15 SW 7 16.09 Fair CLR 19 17 88% 76.23 0.0
06 05:55 SW 7 16.09 Fair CLR 19 16 83% 76.2 0.0
06 05:35 SW 7 16.09 Fair CLR 19 16 83% 76.2 0.0
06 05:15 SW 6 16.09 Fair CLR 19 16 83% 76.2 0.0
06 04:55 SW 6 16.09 Fair CLR 19 16 83% 76.2 0.0
06 04:35 SW 7 16.09 Fair CLR 19 16 83% 76.23 0.0
06 04:15 SW 7 16.09 Fair CLR 19 16 83% 76.2 0.0
06 03:55 SW 7 16.09 Fair CLR 19 16 83% 76.2 0.0
06 03:35 S 9 16.09 Fair CLR 19 16 83% 76.2 0.0
06 03:15 S 11 16.09 Fair CLR 19 16 83% 76.2 0.0
06 02:55 S 11 16.09 Fair CLR 19 16 83% 76.2 0.0
06 02:35 S 13 16.09 Fair CLR 19 16 83% 76.23 0.0
06 02:15 S 11 16.09 Fair CLR 19 16 83% 76.23 0.0
06 01:55 S 9 16.09 Fair CLR 19 16 83% 76.23 0.0
06 01:35 S 9 16.09 Fair CLR 19 16 83% 76.23 0.0
06 01:15 S 9 16.09 Fair CLR 19 15 78% 76.28 0.0
06 00:55 S 11 16.09 Fair CLR 19 15 78% 76.28 0.0
06 00:35 S 11 16.09 Fair CLR 19 15 78% 76.3 0.0
06 00:15 S 11 16.09 Fair CLR 19 15 78% 76.3 0.0
05 23:50 S 11 16.09 Fair CLR 20 15 73% 76.28 0.0
05 23:35 S 11 16.09 Fair CLR 20 14 69% 76.28 0.0
05 23:15 S 9 16.09 Fair CLR 20 14 69% 76.28 0.0
05 22:55 S 9 16.09 Fair CLR 20 14 69% 76.28 0.0
05 22:35 S 9 16.09 Fair CLR 20 14 69% 76.3 0.0
05 22:15 S 11 16.09 Fair CLR 20 14 69% 76.3 0.0
05 21:55 S 13 16.09 Fair CLR 20 13 64% 76.3 0.0
05 21:35 SE 9 16.09 Fair CLR 20 13 64% 76.28 0.0
05 21:15 SE 6 16.09 Fair CLR 20 13 64% 76.28 0.0
05 20:55 SE 7 16.09 Fair CLR 20 13 64% 76.25 0.0
05 20:40 SE 9 16.09 Fair CLR 20 13 64% 76.25 0.0
05 20:15 S 9 16.09 Fair CLR 20 14 69% 76.28 0.0
05 19:55 SE 7 16.09 Fair CLR 21 14 64% 76.28 0.0
05 19:35 SE 13 16.09 Fair CLR 21 14 64% 76.25 0.0
05 19:15 SE 13 G 24 16.09 Fair CLR 22 14 61% 76.25 0.0
05 18:55 S 13 16.09 Fair CLR 22 13 57% 76.28 0.0
05 18:35 S 15 16.09 Fair CLR 22 14 61% 76.28 0.0
05 18:15 S 17 16.09 Partly Cloudy SCT043 23 13 53% 76.28 0.0
05 17:55 S 11 16.09 Mostly Cloudy BKN042 23 13 53% 76.28 0.0
05 17:35 S 13 G 24 16.09 Mostly Cloudy BKN041 BKN047 23 14 57% 76.3 0.0
05 17:15 S 17 G 26 16.09 Mostly Cloudy BKN041 BKN048 23 14 57% 76.3 0.0
05 16:30 S 13 G 24 16.09 A Few Clouds FEW042 23 14 57% 76.3 0.0
05 16:15 S 13 G 26 16.09 Partly Cloudy SCT042 23 14 57% 76.3 0.0
05 15:55 SE 13 16.09 Mostly Cloudy BKN041 23 14 57% 76.33 0.0
05 15:35 Vrbl 11 G 22 16.09 Mostly Cloudy BKN042 24 14 54% 25 76.35 0.0
05 15:15 SE 13 G 22 16.09 Partly Cloudy SCT041 24 14 54% 25 76.38 0.0
05 14:55 S 13 16.09 A Few Clouds FEW043 24 13 50% 25 76.4 0.0
05 14:35 SE 15 16.09 Fair CLR 24 13 50% 25 76.38 0.0
05 14:15 S 20 16.09 Fair CLR 24 13 50% 25 76.38 0.0
05 13:55 SE 19 16.09 Fair CLR 24 13 50% 25 76.38 0.0
05 13:35 SE 15 16.09 Fair CLR 24 13 50% 25 76.35 0.0
05 13:15 S 13 G 26 16.09 A Few Clouds FEW040 25 14 51% 26 76.4 0.0
05 12:55 S 17 G 31 16.09 Partly Cloudy SCT039 24 14 54% 25 76.4 0.0
05 12:35 S 15 G 24 16.09 Partly Cloudy SCT039 24 14 54% 25 76.43 0.0
05 12:15 S 17 16.09 Mostly Cloudy SCT038 BKN043 23 14 57% 76.43 0.0
05 11:35 S 11 G 24 16.09 A Few Clouds FEW042 23 13 53% 76.43 0.0
05 11:15 SE 9 G 22 16.09 Fair CLR 23 14 57% 76.43 0.0
05 10:55 S 17 16.09 Fair CLR 23 14 57% 76.43 0.0
05 10:35 S 17 16.09 Fair CLR 22 14 61% 76.4 0.0
05 10:15 S 9 16.09 Fair CLR 22 14 61% 76.4 0.0
05 09:55 SW 13 16.09 A Few Clouds FEW036 23 14 57% 76.4 0.0
05 09:35 S 11 G 22 16.09 A Few Clouds FEW036 23 14 57% 76.4 0.0
05 09:15 S 15 16.09 Fair CLR 22 14 61% 76.38 0.0
05 08:55 S 15 16.09 Fair CLR 22 14 61% 76.38 0.0
05 08:35 S 7 16.09 Fair CLR 22 14 61% 76.38 0.0
05 08:15 Calm 16.09 Fair CLR 21 15 69% 76.38 0.0
05 07:55 Calm 16.09 Fair CLR 19 15 78% 76.38 0.0
05 07:35 Calm 16.09 Fair CLR 16 14 88% 76.35 0.0
05 07:15 Calm 16.09 Fair CLR 15 13 88% 76.33 0.0
05 06:55 Calm 16.09 Fair CLR 13 13 100% 76.33 0.0
05 06:35 Calm 16.09 Fair CLR 13 12 94% 76.3 0.0
05 06:15 Calm 16.09 Fair CLR 14 13 94% 76.3 0.0
05 05:55 Calm 16.09 Fair CLR 14 13 94% 76.28 0.0
05 05:35 Calm 16.09 Fair CLR 14 13 94% 76.3 0.0
05 05:15 Calm 16.09 Fair CLR 14 13 94% 76.28 0.0
05 04:55 Calm 16.09 Fair CLR 14 13 94% 76.25 0.0
05 04:35 Calm 16.09 Fair CLR 15 13 88% 76.25 0.0
05 04:15 Calm 16.09 Fair CLR 17 13 77% 76.23 0.0
05 03:55 Calm 16.09 Fair CLR 18 13 73% 76.25 0.0
05 03:35 S 7 16.09 Fair CLR 17 13 77% 76.23 0.0
05 03:15 S 11 16.09 Fair CLR 17 13 77% 76.23 0.0
05 02:55 S 11 16.09 Fair CLR 18 13 73% 76.25 0.0
05 02:35 S 11 16.09 Fair CLR 18 14 78% 76.25 0.0
05 02:15 S 9 16.09 Fair CLR 18 14 78% 76.28 0.0
05 01:55 S 9 16.09 Fair CLR 18 14 78% 76.3 0.0
05 01:35 S 13 16.09 Fair CLR 18 14 78% 76.3 0.0
05 01:15 S 13 16.09 Fair CLR 18 14 78% 76.33 0.0
05 00:55 S 13 16.09 Fair CLR 19 14 73% 76.33 0.0
05 00:30 S 11 16.09 Fair CLR 18 14 78% 76.35 0.0
05 00:15 S 11 16.09 Fair CLR 18 13 73% 76.35 0.0
04 23:55 S 6 16.09 Fair CLR 18 13 73% 76.35 0.0
04 23:35 SW 7 16.09 Fair CLR 18 13 73% 76.35 0.0
04 23:15 S 7 16.09 Fair CLR 18 13 73% 76.35 0.0
04 22:55 S 9 16.09 Fair CLR 18 13 73% 76.35 0.0
04 22:35 S 9 16.09 Fair CLR 18 13 73% 76.33 0.0
04 22:15 S 7 16.09 Fair CLR 18 12 68% 76.33 0.0
04 21:55 S 9 16.09 Fair CLR 18 12 68% 76.33 0.0
04 21:35 SW 7 16.09 Fair CLR 18 12 68% 76.33 0.0
04 21:15 S 11 16.09 Fair CLR 19 11 60% 76.33 0.0
04 20:55 S 11 16.09 Fair CLR 18 11 64% 76.33 0.0
04 20:35 S 9 16.09 Fair CLR 18 11 64% 76.3 0.0
04 20:15 S 9 16.09 Fair CLR 18 11 64% 76.3 0.0
04 19:55 S 11 16.09 Fair CLR 19 11 60% 76.3 0.0
04 19:35 S 11 16.09 Fair CLR 20 10 53% 76.28 0.0
04 19:15 S 11 G 22 16.09 Fair CLR 21 9 46% 76.28 0.0
04 18:55 S 17 16.09 Fair CLR 22 9 44% 76.28 0.0
04 18:35 S 19 16.09 Fair CLR 22 8 41% 76.3 0.0
04 18:15 S 17 G 28 16.09 Fair CLR 22 8 41% 76.3 0.0
04 17:55 S 19 G 30 16.09 Fair CLR 23 9 41% 76.3 0.0
04 17:35 S 22 16.09 Fair CLR 23 9 41% 76.3 0.0
04 17:15 S 22 G 31 16.09 Fair CLR 23 10 44% 76.3 0.0
04 16:55 S 19 G 28 16.09 Fair CLR 23 12 50% 76.3 0.0
04 16:35 S 17 G 31 16.09 Fair CLR 23 11 47% 76.3 0.0
04 16:15 S 17 G 31 16.09 Fair CLR 23 12 50% 76.33 0.0
04 15:55 S 20 G 30 16.09 Fair CLR 23 11 47% 76.33 0.0
04 15:35 S 22 16.09 Fair CLR 24 11 44% 25 76.35 0.0
04 15:15 S 24 16.09 Fair CLR 24 10 41% 25 76.35 0.0
Date Time (edt) Wind (kph) Vis. (km) Weather Sky Cond. Air Dwpt Max. Min. Relative Humidity Wind Chill (°C) Heat Index (°C) altimeter (cm) sea level (mb) 1 hr 3 hr 6 hr
6 hour
Temperature (ºC) Pressure Precipitation (cm)